createdAt,value
2023-02-08T00:02:27.694Z,7.31
2023-02-08T00:05:49.635Z,7.31
2023-02-08T00:09:11.651Z,7.30
2023-02-08T00:12:34.758Z,7.30
2023-02-08T00:15:56.667Z,7.30
2023-02-08T00:19:18.481Z,7.30
2023-02-08T00:22:40.238Z,7.30
2023-02-08T00:26:02.053Z,7.29
2023-02-08T00:29:23.944Z,7.28
2023-02-08T00:32:45.785Z,7.28
2023-02-08T00:36:08.980Z,7.29
2023-02-08T00:39:31.055Z,7.28
2023-02-08T00:42:53.107Z,7.29
2023-02-08T00:46:14.919Z,7.29
2023-02-08T00:49:36.743Z,7.28
2023-02-08T00:52:59.740Z,7.28
2023-02-08T00:56:23.976Z,7.28
2023-02-08T00:59:46.828Z,7.29
2023-02-08T01:03:10.714Z,7.29
2023-02-08T01:06:32.620Z,7.29
2023-02-08T01:09:54.428Z,7.29
2023-02-08T01:13:16.461Z,7.29
2023-02-08T01:16:38.353Z,7.29
2023-02-08T01:20:00.417Z,7.28
2023-02-08T01:23:22.197Z,7.28
2023-02-08T01:26:44.527Z,7.28
2023-02-08T01:30:06.962Z,7.28
2023-02-08T01:33:30.376Z,7.26
2023-02-08T01:36:52.255Z,7.26
2023-02-08T01:40:14.131Z,7.25
2023-02-08T01:44:02.561Z,7.24
2023-02-08T01:47:26.936Z,7.23
2023-02-08T01:51:04.224Z,7.23
2023-02-08T01:54:28.830Z,7.22
2023-02-08T01:57:53.861Z,7.22
2023-02-08T02:01:16.379Z,7.21
2023-02-08T02:04:38.688Z,7.20
2023-02-08T02:08:01.721Z,7.20
2023-02-08T02:11:24.120Z,7.20
2023-02-08T02:14:47.898Z,7.19
2023-02-08T02:18:10.456Z,7.20
2023-02-08T02:21:50.926Z,7.20
2023-02-08T02:25:37.807Z,7.18
2023-02-08T02:29:37.678Z,7.17
2023-02-08T02:33:15.325Z,7.17
2023-02-08T02:37:03.204Z,7.16
2023-02-08T02:40:35.504Z,7.15
2023-02-08T02:43:59.736Z,7.14
2023-02-08T02:47:42.256Z,7.14
2023-02-08T02:51:17.672Z,7.13
2023-02-08T02:54:49.025Z,7.13
2023-02-08T02:58:12.576Z,7.12
2023-02-08T03:01:35.820Z,7.12
2023-02-08T03:04:57.869Z,7.12
2023-02-08T03:08:31.685Z,7.11
2023-02-08T03:12:07.567Z,7.10
2023-02-08T03:16:07.374Z,7.10
2023-02-08T03:19:41.141Z,7.09
2023-02-08T03:23:10.217Z,7.08
2023-02-08T03:26:36.979Z,7.09
2023-02-08T03:30:29.177Z,7.09
2023-02-08T03:33:57.005Z,7.09
2023-02-08T03:37:25.721Z,7.09
2023-02-08T03:40:50.007Z,7.09
2023-02-08T03:44:34.341Z,7.09
2023-02-08T03:47:57.942Z,7.10
2023-02-08T03:51:22.011Z,7.09
2023-02-08T03:54:53.576Z,7.10
2023-02-08T03:58:28.947Z,7.09
2023-02-08T04:01:55.885Z,7.09
2023-02-08T04:05:18.193Z,7.09
2023-02-08T04:08:45.907Z,7.09
2023-02-08T04:12:07.903Z,7.09
2023-02-08T04:15:29.763Z,7.09
2023-02-08T04:18:51.565Z,7.09
2023-02-08T04:22:13.579Z,7.09
2023-02-08T04:25:35.465Z,7.09
2023-02-08T04:28:57.357Z,7.08
2023-02-08T04:32:19.322Z,7.08
2023-02-08T04:35:42.588Z,7.08
2023-02-08T04:39:04.746Z,7.07
2023-02-08T04:42:26.719Z,7.07
2023-02-08T04:45:50.550Z,7.07
2023-02-08T04:49:12.365Z,7.07
2023-02-08T04:52:34.141Z,7.07
2023-02-08T04:55:55.914Z,7.07
2023-02-08T04:59:18.482Z,7.07
2023-02-08T05:02:40.240Z,7.06
2023-02-08T05:06:02.011Z,7.06
2023-02-08T05:09:23.983Z,7.06
2023-02-08T05:12:46.293Z,7.06
2023-02-08T05:16:08.114Z,7.05
2023-02-08T05:19:30.048Z,7.06
2023-02-08T05:22:51.842Z,7.06
2023-02-08T05:26:13.807Z,7.06
2023-02-08T05:29:35.553Z,7.06
2023-02-08T05:32:57.520Z,7.06
2023-02-08T05:36:20.739Z,7.07
2023-02-08T05:39:42.568Z,7.07
2023-02-08T05:43:04.361Z,7.07
2023-02-08T05:46:26.157Z,7.08
2023-02-08T05:49:47.937Z,7.08
2023-02-08T05:53:10.141Z,7.09
2023-02-08T05:56:32.060Z,7.08
2023-02-08T05:59:53.827Z,7.09
2023-02-08T06:03:15.917Z,7.08
2023-02-08T06:06:37.812Z,7.08
2023-02-08T06:09:59.678Z,7.08
2023-02-08T06:13:21.444Z,7.08
2023-02-08T06:16:43.376Z,7.08
2023-02-08T06:20:05.736Z,7.08
2023-02-08T06:23:27.500Z,7.09
2023-02-08T06:26:49.329Z,7.09
2023-02-08T06:30:11.667Z,7.10
2023-02-08T06:33:33.453Z,7.10
2023-02-08T06:36:55.421Z,7.11
2023-02-08T06:40:17.302Z,7.11
2023-02-08T06:43:40.851Z,7.13
2023-02-08T06:47:03.221Z,7.14
2023-02-08T06:50:25.070Z,7.15
2023-02-08T06:53:47.037Z,7.17
2023-02-08T06:57:09.438Z,7.18
2023-02-08T07:00:31.378Z,7.19
2023-02-08T07:03:53.236Z,7.20
2023-02-08T07:07:16.219Z,7.22
2023-02-08T07:10:40.535Z,7.24
2023-02-08T07:14:02.525Z,7.25
2023-02-08T07:17:24.487Z,7.27
2023-02-08T07:20:46.296Z,7.28
2023-02-08T07:24:08.160Z,7.29
2023-02-08T07:27:29.986Z,7.31
2023-02-08T07:30:51.829Z,7.32
2023-02-08T07:34:13.757Z,7.34
2023-02-08T07:37:35.646Z,7.36
2023-02-08T07:41:05.550Z,7.36
2023-02-08T07:44:27.433Z,7.37
2023-02-08T07:47:49.272Z,7.40
2023-02-08T07:51:12.454Z,7.42
2023-02-08T07:54:34.253Z,7.43
2023-02-08T07:57:57.283Z,7.46
2023-02-08T08:01:22.615Z,7.48
2023-02-08T08:04:44.867Z,7.51
2023-02-08T08:08:06.843Z,7.54
2023-02-08T08:11:28.850Z,7.56
2023-02-08T08:14:53.618Z,7.60
2023-02-08T08:18:15.728Z,7.63
2023-02-08T08:21:37.530Z,7.66
2023-02-08T08:25:00.294Z,7.69
2023-02-08T08:28:22.454Z,7.72
2023-02-08T08:31:44.790Z,7.75
2023-02-08T08:35:07.503Z,7.77
2023-02-08T08:38:29.303Z,7.81
2023-02-08T08:41:51.182Z,7.84
2023-02-08T08:45:13.083Z,7.88
2023-02-08T08:48:37.200Z,7.92
2023-02-08T08:51:59.056Z,7.96
2023-02-08T08:55:20.896Z,7.99
2023-02-08T08:58:43.649Z,8.02
2023-02-08T09:02:05.544Z,8.05
2023-02-08T09:05:30.060Z,8.08
2023-02-08T09:08:55.087Z,8.11
2023-02-08T09:12:16.956Z,8.15
2023-02-08T09:15:40.486Z,8.19
2023-02-08T09:19:03.352Z,8.22
2023-02-08T09:22:25.135Z,8.27
2023-02-08T09:25:48.554Z,8.32
2023-02-08T09:29:11.952Z,8.37
2023-02-08T09:32:34.289Z,8.43
2023-02-08T09:35:56.114Z,8.48
2023-02-08T09:39:21.413Z,8.54
2023-02-08T09:43:09.471Z,8.60
2023-02-08T09:46:35.792Z,8.69
2023-02-08T09:49:59.314Z,8.76
2023-02-08T09:53:30.994Z,8.82
2023-02-08T09:56:53.310Z,8.88
2023-02-08T10:00:22.195Z,8.94
2023-02-08T10:03:45.257Z,9.00
2023-02-08T10:07:09.961Z,9.04
2023-02-08T10:10:55.823Z,9.09
2023-02-08T10:14:48.625Z,9.13
2023-02-08T10:18:29.610Z,9.15
2023-02-08T10:22:08.170Z,9.16
2023-02-08T10:25:42.140Z,9.18
2023-02-08T10:29:19.360Z,9.20
2023-02-08T10:32:51.436Z,9.27
2023-02-08T10:36:17.370Z,9.30
2023-02-08T10:39:39.806Z,9.31
2023-02-08T10:43:29.841Z,9.31
2023-02-08T10:46:55.829Z,9.31
2023-02-08T10:50:32.538Z,9.32
2023-02-08T10:53:54.939Z,9.33
2023-02-08T10:57:29.866Z,9.33
2023-02-08T11:00:52.255Z,9.31
2023-02-08T11:04:15.145Z,9.29
2023-02-08T11:07:37.400Z,9.26
2023-02-08T11:11:07.952Z,9.24
2023-02-08T11:14:47.179Z,9.20
2023-02-08T11:18:20.122Z,9.18
2023-02-08T11:21:42.355Z,9.16
2023-02-08T11:25:07.755Z,9.15
2023-02-08T11:28:31.031Z,9.13
2023-02-08T11:31:56.647Z,9.11
2023-02-08T11:35:22.081Z,9.10
2023-02-08T11:38:44.226Z,9.10
2023-02-08T11:42:06.335Z,9.14
2023-02-08T11:45:31.179Z,9.14
2023-02-08T11:48:53.880Z,9.14
2023-02-08T11:52:32.525Z,9.15
2023-02-08T11:56:18.981Z,9.17
2023-02-08T11:59:40.946Z,9.22
2023-02-08T12:03:25.971Z,9.27
2023-02-08T12:06:50.262Z,9.33
2023-02-08T12:10:33.637Z,9.36
2023-02-08T12:14:15.922Z,9.38
2023-02-08T12:17:47.612Z,9.43
2023-02-08T12:21:19.309Z,9.59
2023-02-08T12:25:15.088Z,9.88
2023-02-08T12:28:46.257Z,10.16
2023-02-08T12:32:26.863Z,10.67
2023-02-08T12:36:03.512Z,10.96
2023-02-08T12:40:10.978Z,11.08
2023-02-08T12:43:50.139Z,11.13
2023-02-08T12:47:17.652Z,11.32
2023-02-08T12:51:05.892Z,11.97
2023-02-08T12:54:59.927Z,12.57
2023-02-08T12:58:27.593Z,12.76
2023-02-08T13:01:54.208Z,12.67
2023-02-08T13:05:20.855Z,12.56
2023-02-08T13:09:01.658Z,12.73
2023-02-08T13:12:31.060Z,12.80
2023-02-08T13:15:55.543Z,12.73
2023-02-08T13:19:41.971Z,12.63
2023-02-08T13:23:16.799Z,12.59
2023-02-08T13:26:39.117Z,12.92
2023-02-08T13:30:01.471Z,13.48
2023-02-08T13:34:01.192Z,13.91
2023-02-08T13:37:27.801Z,14.15
2023-02-08T13:41:03.006Z,14.20
2023-02-08T13:44:37.659Z,14.10
2023-02-08T13:48:02.505Z,14.02
2023-02-08T13:51:33.342Z,14.08
2023-02-08T13:55:38.348Z,14.24
2023-02-08T13:59:01.394Z,14.56
2023-02-08T14:02:27.179Z,14.79
2023-02-08T14:05:50.615Z,15.01
2023-02-08T14:09:15.379Z,15.18
2023-02-08T14:13:21.701Z,15.33
2023-02-08T14:20:36.497Z,15.54
2023-02-08T14:24:07.273Z,15.68
2023-02-08T14:27:47.623Z,16.22
2023-02-08T14:31:11.079Z,16.55
2023-02-08T14:34:39.164Z,16.69
2023-02-08T14:38:19.139Z,16.73
2023-02-08T14:42:00.362Z,16.76
2023-02-08T14:45:37.208Z,16.74
2023-02-08T14:49:03.573Z,16.69
2023-02-08T14:52:25.776Z,16.23
2023-02-08T14:56:03.660Z,15.72
2023-02-08T14:59:28.565Z,15.10
2023-02-08T15:02:50.496Z,14.56
2023-02-08T15:06:39.961Z,14.04
2023-02-08T15:10:10.036Z,13.63
2023-02-08T15:13:31.985Z,13.36
2023-02-08T15:16:55.734Z,13.07
2023-02-08T15:20:29.323Z,12.82
2023-02-08T15:24:22.559Z,12.58
2023-02-08T15:27:52.803Z,12.11
2023-02-08T15:31:17.400Z,11.34
2023-02-08T15:34:47.058Z,10.64
2023-02-08T15:38:16.999Z,10.23
2023-02-08T15:41:39.019Z,10.01
2023-02-08T15:45:03.132Z,9.78
2023-02-08T15:48:26.229Z,9.56
2023-02-08T15:51:48.551Z,9.32
2023-02-08T15:55:16.948Z,9.11
2023-02-08T15:58:41.525Z,9.07
2023-02-08T16:02:24.512Z,9.17
2023-02-08T16:05:58.223Z,9.26
2023-02-08T16:09:23.096Z,9.30
2023-02-08T16:12:54.583Z,9.32
2023-02-08T16:16:16.764Z,9.30
2023-02-08T16:19:51.306Z,9.27
2023-02-08T16:23:27.650Z,9.23
2023-02-08T16:27:05.289Z,9.19
2023-02-08T16:30:27.280Z,9.15
2023-02-08T16:34:06.993Z,9.10
2023-02-08T16:37:31.870Z,9.06
2023-02-08T16:40:59.469Z,9.01
2023-02-08T16:44:33.394Z,8.96
2023-02-08T16:47:58.434Z,8.92
2023-02-08T16:51:25.300Z,8.87
2023-02-08T16:54:47.922Z,8.83
2023-02-08T16:58:14.054Z,8.78
2023-02-08T17:01:36.426Z,8.72
2023-02-08T17:04:58.880Z,8.67
2023-02-08T17:08:25.281Z,8.62
2023-02-08T17:11:48.320Z,8.57
2023-02-08T17:15:10.258Z,8.53
2023-02-08T17:18:34.608Z,8.48
2023-02-08T17:21:56.818Z,8.42
2023-02-08T17:25:20.202Z,8.38
2023-02-08T17:28:43.561Z,8.33
2023-02-08T17:32:06.378Z,8.27
2023-02-08T17:35:28.871Z,8.24
2023-02-08T17:38:52.263Z,8.19
2023-02-08T17:42:14.118Z,8.15
2023-02-08T17:45:39.372Z,8.11
2023-02-08T17:49:01.958Z,8.08
2023-02-08T17:52:23.969Z,8.03
2023-02-08T17:55:46.379Z,7.99
2023-02-08T17:59:11.753Z,7.96
2023-02-08T18:02:33.683Z,7.92
2023-02-08T18:06:00.040Z,7.89
2023-02-08T18:09:21.849Z,7.86
2023-02-08T18:12:43.758Z,7.83
2023-02-08T18:16:10.337Z,7.79
2023-02-08T18:19:33.110Z,7.76
2023-02-08T18:22:54.920Z,7.73
2023-02-08T18:26:19.683Z,7.69
2023-02-08T18:29:41.490Z,7.65
2023-02-08T18:33:03.332Z,7.62
2023-02-08T18:36:25.188Z,7.58
2023-02-08T18:39:47.082Z,7.54
2023-02-08T18:43:08.963Z,7.52
2023-02-08T18:46:30.967Z,7.58
2023-02-08T18:49:55.100Z,7.58
2023-02-08T18:53:17.088Z,7.54
2023-02-08T18:56:39.542Z,7.52
2023-02-08T19:00:01.397Z,7.48
2023-02-08T19:03:23.396Z,7.46
2023-02-08T19:06:47.889Z,7.43
2023-02-08T19:10:09.827Z,7.41
2023-02-08T19:13:32.273Z,7.39
2023-02-08T19:16:54.118Z,7.37
2023-02-08T19:20:16.488Z,7.35
2023-02-08T19:23:38.451Z,7.32
2023-02-08T19:27:00.280Z,7.30
2023-02-08T19:30:22.360Z,7.27
2023-02-08T19:33:46.584Z,7.24
2023-02-08T19:37:08.400Z,7.21
2023-02-08T19:40:30.313Z,7.17
2023-02-08T19:43:52.617Z,7.14
2023-02-08T19:47:14.423Z,7.11
2023-02-08T19:50:36.237Z,7.09
2023-02-08T19:54:00.930Z,7.05
2023-02-08T19:57:25.967Z,7.02
2023-02-08T20:00:47.972Z,6.99
2023-02-08T20:04:09.802Z,6.97
2023-02-08T20:07:31.737Z,6.95
2023-02-08T20:10:54.480Z,6.92
2023-02-08T20:14:16.684Z,6.89
2023-02-08T20:17:38.748Z,6.86
2023-02-08T20:21:02.086Z,6.85
2023-02-08T20:24:24.316Z,6.82
2023-02-08T20:27:46.181Z,6.79
2023-02-08T20:31:09.794Z,6.77
2023-02-08T20:34:31.588Z,6.74
2023-02-08T20:37:53.340Z,6.71
2023-02-08T20:41:16.693Z,6.69
2023-02-08T20:44:38.448Z,6.66
2023-02-08T20:48:00.619Z,6.63
2023-02-08T20:51:27.999Z,6.61
2023-02-08T20:54:49.835Z,6.58
2023-02-08T20:58:14.217Z,6.55
2023-02-08T21:01:37.072Z,6.53
2023-02-08T21:04:59.073Z,6.51
2023-02-08T21:08:20.954Z,6.49
2023-02-08T21:11:46.192Z,6.47
2023-02-08T21:15:09.468Z,6.44
2023-02-08T21:18:32.108Z,6.43
2023-02-08T21:21:57.181Z,6.40
2023-02-08T21:25:19.102Z,6.37
2023-02-08T21:28:41.663Z,6.34
2023-02-08T21:32:04.009Z,6.32
2023-02-08T21:35:26.038Z,6.30
2023-02-08T21:38:48.110Z,6.28
2023-02-08T21:42:10.460Z,6.25
2023-02-08T21:45:33.698Z,6.23
2023-02-08T21:49:15.637Z,6.21
2023-02-08T21:52:56.117Z,6.18
2023-02-08T21:56:18.347Z,6.15
2023-02-08T21:59:43.016Z,6.12
2023-02-08T22:03:05.368Z,6.10
2023-02-08T22:06:27.402Z,6.08
2023-02-08T22:09:49.394Z,6.05
2023-02-08T22:13:11.302Z,6.03
2023-02-08T22:16:33.165Z,6.01
2023-02-08T22:19:55.023Z,5.99
2023-02-08T22:23:16.820Z,5.96
2023-02-08T22:26:38.632Z,5.95
2023-02-08T22:30:00.513Z,5.92
2023-02-08T22:33:22.407Z,5.89
2023-02-08T22:36:44.270Z,5.87
2023-02-08T22:40:08.115Z,5.85
2023-02-08T22:43:29.982Z,5.82
2023-02-08T22:46:54.009Z,5.78
2023-02-08T22:50:16.224Z,5.75
2023-02-08T22:53:38.149Z,5.72
2023-02-08T22:57:00.442Z,5.68
2023-02-08T23:00:24.776Z,5.64
2023-02-08T23:03:46.649Z,5.61
2023-02-08T23:07:08.524Z,5.59
2023-02-08T23:10:30.285Z,5.55
2023-02-08T23:13:52.209Z,5.52
2023-02-08T23:17:14.106Z,5.48
2023-02-08T23:20:41.390Z,5.44
2023-02-08T23:24:03.375Z,5.42
2023-02-08T23:27:25.164Z,5.39
2023-02-08T23:30:47.227Z,5.35
2023-02-08T23:34:11.557Z,5.32
2023-02-08T23:37:33.342Z,5.28
2023-02-08T23:40:55.117Z,5.25
2023-02-08T23:44:16.918Z,5.22
2023-02-08T23:47:39.710Z,5.19
2023-02-08T23:51:04.038Z,5.16
2023-02-08T23:54:25.976Z,5.12
2023-02-08T23:57:50.738Z,5.09
